Mc Tavish Automated Reporting Station

METAR CWTA

罗盘
风向 的 风向 的 风向 到 风向 360°
风: 8 kt, 3 beaufort

添加一条跑道以查看侧风和逆风信息。

添置 跑道
0 2.000 4.000 6.000 8.000 10.000
BKN 7.000 ft
METAR CYUL 061900Z 36008KT 310V010 30SM BKN070 24/12 A2992 RMK CU6 SC ASOCTD SLP134 DENSITY ALT 1200FT

METAR Mc Tavish Automated Reporting Station

该字段位于加拿大中。

这份报告是针对2022年7月6日 3:00 下午, 当地时间在蒙特利尔皮埃尔·埃利奥特·特鲁多国际机场进行的。

机场观察

风向为360°,速度为8 kt。 风向在310°和010°之间变化。

可见度为30 mi。

有碎云在7.000 ft的高度。 破损或更高的上限为7.000 ft。

温度和风寒是75 °F。 露点为54 °F,相对湿度为47%。 海平面上的气压为29,91 inHg (QNH)。

白天

今天,太阳从5:12 上午升起,在8:45 下午降落。 这适用于Mc Tavish Automated Reporting Station,世界夏令时可能有所不同。 当地时间与世界标准时间之间的时差为-4 小时。 夏令时目前正在进行中。

公司介绍

我们没有关于这个机场的公司信息。

体会

到Vliegles.nl去找飞行课程,跳伞和其他飞行体验。 浏览页面,了解Mc Tavish Automated Reporting Station附近所有可用的活动。 你也可以使用搜索功能来寻找你所在地附近的特定飞行课程、跳伞或其他飞行体验。

您会帮助我们保持Metar-Taf.com正常运行吗?
您的贡献有助于网站的进一步开发并支付费用。

没有更多广告

您是捐款5美元还是更多?然后,我们将永远不会再向您展示广告,这是我们永恒的感谢!
捐赠前先登录

乌云

7.000 ft BKN 碎云

温度 & 天气

温度 75 °F
露点 54 °F
相对湿度 47%
Kp-index 0  

评论

SLP134海平面压力为29,93 inHg (29,93 inHg)
CU6 SC ASOCTD DENSITY ALT 1200FT

公司介绍

新增公司

下载我们的应用程序

在您的手机和平板电脑上轻松访问所有航空天气。
有许多网站上没有的功能,如离线支持和个人机场列表。

Studio Eveline

Benalmádena
España

我们和第三方通过cookies跟踪您在我们网站上的上网行为。如果您继续,我们认为您同意我们的cookie政策。 了解更多